createdAt,value
2023-10-12T00:01:24.952Z,19.01
2023-10-12T00:04:06.942Z,19.06
2023-10-12T00:06:37.667Z,19.03
2023-10-12T00:09:17.467Z,19.06
2023-10-12T00:11:57.860Z,19.12
2023-10-12T00:14:32.587Z,19.19
2023-10-12T00:17:00.129Z,19.20
2023-10-12T00:19:27.456Z,19.16
2023-10-12T00:22:00.185Z,19.18
2023-10-12T00:24:31.325Z,19.15
2023-10-12T00:26:58.807Z,19.21
2023-10-12T00:29:25.839Z,19.22
2023-10-12T00:31:56.250Z,19.25
2023-10-12T00:34:24.064Z,19.27
2023-10-12T00:36:53.071Z,19.37
2023-10-12T00:39:22.602Z,19.36
2023-10-12T00:41:54.592Z,19.43
2023-10-12T00:44:27.228Z,19.43
2023-10-12T00:46:56.744Z,19.47
2023-10-12T00:49:27.251Z,19.48
2023-10-12T00:52:08.137Z,19.44
2023-10-12T00:54:38.474Z,19.45
2023-10-12T00:57:09.887Z,19.36
2023-10-12T00:59:40.103Z,19.36
2023-10-12T01:02:17.544Z,19.45
2023-10-12T01:04:54.076Z,19.42
2023-10-12T01:07:25.746Z,19.44
2023-10-12T01:10:05.681Z,19.45
2023-10-12T01:12:33.588Z,19.49
2023-10-12T01:15:09.893Z,19.47
2023-10-12T01:17:36.788Z,19.46
2023-10-12T01:20:17.761Z,19.50
2023-10-12T01:22:44.775Z,19.47
2023-10-12T01:25:20.167Z,19.48
2023-10-12T01:27:48.130Z,19.51
2023-10-12T01:30:18.159Z,19.48
2023-10-12T01:32:44.830Z,19.35
2023-10-12T01:35:14.335Z,19.39
2023-10-12T01:37:56.433Z,19.54
2023-10-12T01:40:25.543Z,19.55
2023-10-12T01:42:52.283Z,19.53
2023-10-12T01:45:20.399Z,19.55
2023-10-12T01:47:56.377Z,19.53
2023-10-12T01:50:27.623Z,19.51
2023-10-12T01:52:57.012Z,19.45
2023-10-12T01:55:29.697Z,19.39
2023-10-12T01:57:57.599Z,19.37
2023-10-12T02:00:44.613Z,19.38
2023-10-12T02:03:18.867Z,19.34
2023-10-12T02:06:00.494Z,19.31
2023-10-12T02:08:33.311Z,19.32
2023-10-12T02:11:18.944Z,19.17
2023-10-12T02:13:51.538Z,19.09
2023-10-12T02:16:31.374Z,18.95
2023-10-12T02:19:00.086Z,19.11
2023-10-12T02:21:27.086Z,19.05
2023-10-12T02:23:54.077Z,19.01
2023-10-12T02:26:40.470Z,18.97
2023-10-12T02:29:08.949Z,18.97
2023-10-12T02:31:40.333Z,19.25
2023-10-12T02:34:12.903Z,19.29
2023-10-12T02:36:39.673Z,19.36
2023-10-12T02:39:15.792Z,19.36
2023-10-12T02:41:50.444Z,19.30
2023-10-12T02:44:19.518Z,19.14
2023-10-12T02:47:04.966Z,19.05
2023-10-12T02:49:38.196Z,19.09
2023-10-12T02:52:08.790Z,19.08
2023-10-12T02:54:50.111Z,19.11
2023-10-12T02:57:22.068Z,19.11
2023-10-12T02:59:57.684Z,19.16
2023-10-12T03:02:32.739Z,19.14
2023-10-12T03:05:01.763Z,19.10
2023-10-12T03:07:28.869Z,19.14
2023-10-12T03:10:00.273Z,19.05
2023-10-12T03:12:33.056Z,19.01
2023-10-12T03:15:01.785Z,19.01
2023-10-12T03:17:28.952Z,19.05
2023-10-12T03:19:56.172Z,19.02
2023-10-12T03:22:35.549Z,18.94
2023-10-12T03:25:20.310Z,18.89
2023-10-12T03:27:51.739Z,18.73
2023-10-12T03:30:18.959Z,18.84
2023-10-12T03:32:45.544Z,18.71
2023-10-12T03:35:14.078Z,18.65
2023-10-12T03:37:54.209Z,18.74
2023-10-12T03:40:40.451Z,18.63
2023-10-12T03:43:25.500Z,18.61
2023-10-12T03:46:17.148Z,18.75
2023-10-12T03:48:49.556Z,18.78
2023-10-12T03:51:16.600Z,18.71
2023-10-12T03:54:04.410Z,18.64
2023-10-12T03:56:39.138Z,18.71
2023-10-12T03:59:08.985Z,18.71
2023-10-12T04:01:41.300Z,18.87
2023-10-12T04:04:31.397Z,18.72
2023-10-12T04:07:00.931Z,18.70
2023-10-12T04:09:52.143Z,18.81
2023-10-12T04:12:20.029Z,18.80
2023-10-12T04:14:53.862Z,18.75
2023-10-12T04:17:26.857Z,18.85
2023-10-12T04:20:06.282Z,18.68
2023-10-12T04:22:46.630Z,18.65
2023-10-12T04:25:14.002Z,18.70
2023-10-12T04:27:50.919Z,18.68
2023-10-12T04:30:32.817Z,18.71
2023-10-12T04:33:18.297Z,18.57
2023-10-12T04:35:50.954Z,18.68
2023-10-12T04:38:38.348Z,18.67
2023-10-12T04:41:13.994Z,18.65
2023-10-12T04:43:40.953Z,18.65
2023-10-12T04:46:13.422Z,18.63
2023-10-12T04:48:47.019Z,18.60
2023-10-12T04:51:19.249Z,18.65
2023-10-12T04:54:06.251Z,18.69
2023-10-12T04:56:38.676Z,18.57
2023-10-12T04:59:20.144Z,18.71
2023-10-12T05:02:05.165Z,18.60
2023-10-12T05:04:44.177Z,18.67
2023-10-12T05:07:10.703Z,18.62
2023-10-12T05:09:40.190Z,18.70
2023-10-12T05:12:07.145Z,18.68
2023-10-12T05:14:34.343Z,18.58
2023-10-12T05:17:00.771Z,18.58
2023-10-12T05:19:27.518Z,18.61
2023-10-12T05:21:54.868Z,18.61
2023-10-12T05:24:24.537Z,18.64
2023-10-12T05:26:57.967Z,18.66
2023-10-12T05:29:24.911Z,18.64
2023-10-12T05:32:06.749Z,18.62
2023-10-12T05:34:41.138Z,18.68
2023-10-12T05:37:17.991Z,18.70
2023-10-12T05:39:47.452Z,18.68
2023-10-12T05:42:15.165Z,18.54
2023-10-12T05:44:45.287Z,18.74
2023-10-12T05:47:15.204Z,18.75
2023-10-12T05:49:42.189Z,18.76
2023-10-12T05:52:09.037Z,18.77
2023-10-12T05:54:41.195Z,18.84
2023-10-12T05:57:20.026Z,18.72
2023-10-12T05:59:47.459Z,18.61
2023-10-12T06:02:19.979Z,18.73
2023-10-12T06:04:47.810Z,18.76
2023-10-12T06:07:14.878Z,18.80
2023-10-12T06:09:41.543Z,18.76
2023-10-12T06:12:09.641Z,18.90
2023-10-12T06:14:38.193Z,18.94
2023-10-12T06:17:06.186Z,18.93
2023-10-12T06:19:37.196Z,18.98
2023-10-12T06:22:21.102Z,19.01
2023-10-12T06:24:53.054Z,19.05
2023-10-12T06:27:19.682Z,19.09
2023-10-12T06:29:47.759Z,19.05
2023-10-12T06:32:20.089Z,19.09
2023-10-12T06:35:10.581Z,19.09
2023-10-12T06:37:56.207Z,19.06
2023-10-12T06:40:24.821Z,18.92
2023-10-12T06:43:10.635Z,18.89
2023-10-12T06:45:50.365Z,18.80
2023-10-12T06:48:29.464Z,18.75
2023-10-12T06:51:04.655Z,18.60
2023-10-12T06:53:36.033Z,18.63
2023-10-12T06:56:24.803Z,18.60
2023-10-12T06:59:11.455Z,18.56
2023-10-12T07:01:51.805Z,18.50
2023-10-12T07:04:30.849Z,18.45
2023-10-12T07:06:58.205Z,18.45
2023-10-12T07:09:41.807Z,18.45
2023-10-12T07:12:13.142Z,18.51
2023-10-12T07:14:46.892Z,18.52
2023-10-12T07:17:14.943Z,18.51
2023-10-12T07:19:46.785Z,18.53
2023-10-12T07:22:15.845Z,18.54
2023-10-12T07:24:42.951Z,18.44
2023-10-12T07:27:18.420Z,18.37
2023-10-12T07:29:44.918Z,18.40
2023-10-12T07:32:32.431Z,18.33
2023-10-12T07:35:07.485Z,18.34
2023-10-12T07:37:34.351Z,18.34
2023-10-12T07:40:18.190Z,18.26
2023-10-12T07:42:48.568Z,18.26
2023-10-12T07:45:16.954Z,18.17
2023-10-12T07:47:46.663Z,18.06
2023-10-12T07:50:15.192Z,18.09
2023-10-12T07:52:44.622Z,18.03
2023-10-12T07:55:12.804Z,18.04
2023-10-12T07:57:40.039Z,18.01
2023-10-12T08:00:10.520Z,17.96
2023-10-12T08:02:46.778Z,17.95
2023-10-12T08:05:24.505Z,17.96
2023-10-12T08:08:04.502Z,17.88
2023-10-12T08:10:42.151Z,17.89
2023-10-12T08:13:25.233Z,17.91
2023-10-12T08:15:53.825Z,17.99
2023-10-12T08:18:42.649Z,18.06
2023-10-12T08:21:18.871Z,18.07
2023-10-12T08:23:50.781Z,18.10
2023-10-12T08:26:35.821Z,18.15
2023-10-12T08:29:32.210Z,18.12
2023-10-12T08:32:05.543Z,18.16
2023-10-12T08:34:38.814Z,18.18
2023-10-12T08:37:10.634Z,18.25
2023-10-12T08:39:47.163Z,18.28
2023-10-12T08:42:20.530Z,18.33
2023-10-12T08:44:51.422Z,18.30
2023-10-12T08:47:31.041Z,18.39
2023-10-12T08:50:01.878Z,18.43
2023-10-12T08:52:31.293Z,18.40
2023-10-12T08:55:05.241Z,18.43
2023-10-12T08:58:01.997Z,18.33
2023-10-12T09:00:35.867Z,18.33
2023-10-12T09:03:06.573Z,18.28
2023-10-12T09:05:35.236Z,18.14
2023-10-12T09:08:13.287Z,18.16
2023-10-12T09:10:57.827Z,18.24
2023-10-12T09:13:28.808Z,18.28
2023-10-12T09:15:57.646Z,18.20
2023-10-12T09:18:27.377Z,18.28
2023-10-12T09:21:03.110Z,18.39
2023-10-12T09:23:49.220Z,18.33
2023-10-12T09:26:20.405Z,18.38
2023-10-12T09:28:46.955Z,18.35
2023-10-12T09:31:48.010Z,18.47
2023-10-12T09:34:30.613Z,18.51
2023-10-12T09:36:57.275Z,18.47
2023-10-12T09:39:35.639Z,18.39
2023-10-12T09:42:22.980Z,18.32
2023-10-12T09:45:02.194Z,18.13
2023-10-12T09:47:44.229Z,18.05
2023-10-12T09:50:15.185Z,18.04
2023-10-12T09:52:46.893Z,18.01
2023-10-12T09:55:24.735Z,18.08
2023-10-12T09:57:53.248Z,17.97
2023-10-12T10:00:50.148Z,18.11
2023-10-12T10:03:18.434Z,17.98
2023-10-12T10:05:55.157Z,18.10
2023-10-12T10:08:29.644Z,18.15
2023-10-12T10:10:58.010Z,18.08
2023-10-12T10:13:40.870Z,18.16
2023-10-12T10:16:10.067Z,18.26
2023-10-12T10:18:57.808Z,18.32
2023-10-12T10:21:31.538Z,18.43
2023-10-12T10:23:59.519Z,18.42
2023-10-12T10:26:32.359Z,18.42
2023-10-12T10:29:06.693Z,18.45
2023-10-12T10:31:35.464Z,18.39
2023-10-12T10:34:08.138Z,18.49
2023-10-12T10:36:35.166Z,18.65
2023-10-12T10:39:24.964Z,18.39
2023-10-12T10:41:55.263Z,18.19
2023-10-12T10:44:23.956Z,17.36
2023-10-12T10:46:58.077Z,17.33
2023-10-12T10:49:34.305Z,16.95
2023-10-12T10:52:07.574Z,16.64
2023-10-12T10:54:40.785Z,16.41
2023-10-12T10:57:26.766Z,16.47
2023-10-12T10:59:54.022Z,16.38
2023-10-12T11:02:21.770Z,16.38
2023-10-12T11:04:55.528Z,16.31
2023-10-12T11:07:22.020Z,16.30
2023-10-12T11:09:53.241Z,16.13
2023-10-12T11:12:25.340Z,16.00
2023-10-12T11:15:26.429Z,15.97
2023-10-12T11:18:08.456Z,15.81
2023-10-12T11:20:46.297Z,15.68
2023-10-12T11:23:15.324Z,15.64
2023-10-12T11:25:42.771Z,15.45
2023-10-12T11:28:19.501Z,15.47
2023-10-12T11:30:46.368Z,15.50
2023-10-12T11:33:13.682Z,15.43
2023-10-12T11:35:42.395Z,15.28
2023-10-12T11:38:18.311Z,15.03
2023-10-12T11:43:58.371Z,14.87
2023-10-12T11:46:26.783Z,14.61
2023-10-12T11:49:02.604Z,14.52
2023-10-12T11:51:29.757Z,14.66
2023-10-12T11:53:56.126Z,14.49
2023-10-12T11:56:25.656Z,14.52
2023-10-12T11:58:55.036Z,14.52
2023-10-12T12:01:23.229Z,14.42
2023-10-12T12:03:54.301Z,14.60
2023-10-12T12:06:26.630Z,14.56
2023-10-12T12:08:59.906Z,14.70
2023-10-12T12:11:31.715Z,14.90
2023-10-12T12:13:58.859Z,15.02
2023-10-12T12:16:25.815Z,15.06
2023-10-12T12:18:53.599Z,15.13
2023-10-12T12:21:30.866Z,15.00
2023-10-12T12:24:01.438Z,15.19
2023-10-12T12:26:33.909Z,15.19
2023-10-12T12:29:04.522Z,15.31
2023-10-12T12:31:33.183Z,15.30
2023-10-12T12:34:00.381Z,15.25
2023-10-12T12:36:30.630Z,15.45
2023-10-12T12:39:13.172Z,15.47
2023-10-12T12:41:41.345Z,15.55
2023-10-12T12:44:11.361Z,15.47
2023-10-12T12:46:38.710Z,15.63
2023-10-12T12:49:07.420Z,15.72
2023-10-12T12:51:35.518Z,15.67
2023-10-12T12:54:02.747Z,15.80
2023-10-12T12:56:29.878Z,15.81
2023-10-12T12:58:56.276Z,15.88
2023-10-12T13:01:26.968Z,15.98
2023-10-12T13:03:57.374Z,15.99
2023-10-12T13:06:25.113Z,16.12
2023-10-12T13:08:51.634Z,16.09
2023-10-12T13:11:19.581Z,16.21
2023-10-12T13:13:48.173Z,16.21
2023-10-12T13:16:15.450Z,16.40
2023-10-12T13:18:46.758Z,16.49
2023-10-12T13:21:17.198Z,16.62
2023-10-12T13:23:44.857Z,16.71
2023-10-12T13:26:13.873Z,16.70
2023-10-12T13:28:42.435Z,16.81
2023-10-12T13:31:12.487Z,16.86
2023-10-12T13:33:42.456Z,16.88
2023-10-12T13:36:09.299Z,16.98
2023-10-12T13:38:37.814Z,17.02
2023-10-12T13:41:05.099Z,17.09
2023-10-12T13:43:32.085Z,17.08
2023-10-12T13:45:59.815Z,17.15
2023-10-12T13:48:30.731Z,17.19
2023-10-12T13:51:20.540Z,17.23
2023-10-12T13:53:50.273Z,17.36
2023-10-12T13:56:17.241Z,17.30
2023-10-12T13:58:47.856Z,17.41
2023-10-12T14:01:16.243Z,17.47
2023-10-12T14:03:53.372Z,17.43
2023-10-12T14:06:20.535Z,17.50
2023-10-12T14:08:47.082Z,17.35
2023-10-12T14:11:15.984Z,17.26
2023-10-12T14:13:43.647Z,17.33
2023-10-12T14:16:11.923Z,17.20
2023-10-12T14:18:40.310Z,17.18
2023-10-12T14:21:12.208Z,17.21
2023-10-12T14:23:50.940Z,17.19
2023-10-12T14:26:18.658Z,17.11
2023-10-12T14:28:50.614Z,17.11
2023-10-12T14:31:17.728Z,17.15
2023-10-12T14:33:44.904Z,17.14
2023-10-12T14:36:11.761Z,17.05
2023-10-12T14:38:40.828Z,16.97
2023-10-12T14:41:10.460Z,16.87
2023-10-12T14:43:37.275Z,16.77
2023-10-12T14:46:05.437Z,16.80
2023-10-12T14:48:32.489Z,16.73
2023-10-12T14:51:17.958Z,16.78
2023-10-12T14:53:45.823Z,16.77
2023-10-12T14:56:14.795Z,16.71
2023-10-12T14:58:44.126Z,16.61
2023-10-12T15:01:14.125Z,16.53
2023-10-12T15:03:42.439Z,16.61
2023-10-12T15:06:12.963Z,16.66
2023-10-12T15:08:40.184Z,16.67
2023-10-12T15:11:07.507Z,16.65
2023-10-12T15:13:38.210Z,16.67
2023-10-12T15:16:10.394Z,16.66
2023-10-12T15:18:41.935Z,16.70
2023-10-12T15:23:43.500Z,16.77
2023-10-12T15:26:14.069Z,16.73
2023-10-12T15:28:40.420Z,16.72
2023-10-12T15:31:07.195Z,16.65
2023-10-12T15:33:34.037Z,16.59
2023-10-12T15:36:00.976Z,16.52
2023-10-12T15:38:31.863Z,16.39
2023-10-12T15:41:00.136Z,16.45
2023-10-12T15:43:27.183Z,16.33
2023-10-12T15:45:54.198Z,16.37
2023-10-12T15:48:27.065Z,16.35
2023-10-12T15:50:55.006Z,16.28
2023-10-12T15:53:23.443Z,16.21
2023-10-12T15:55:50.692Z,16.26
2023-10-12T15:58:17.097Z,16.18
2023-10-12T16:00:43.928Z,16.23
2023-10-12T16:03:11.104Z,16.22
2023-10-12T16:05:38.391Z,16.22
2023-10-12T16:08:17.043Z,16.22
2023-10-12T16:10:49.495Z,16.08
2023-10-12T16:13:16.683Z,16.22
2023-10-12T16:15:45.313Z,16.25
2023-10-12T16:18:12.545Z,16.18
2023-10-12T16:20:40.349Z,16.19
2023-10-12T16:23:07.626Z,16.21
2023-10-12T16:25:35.162Z,16.14
2023-10-12T16:28:03.014Z,16.11
2023-10-12T16:30:35.212Z,16.22
2023-10-12T16:33:02.748Z,16.05
2023-10-12T16:35:31.102Z,16.11
2023-10-12T16:37:59.839Z,16.16
2023-10-12T16:40:29.331Z,16.11
2023-10-12T16:42:56.397Z,16.15
2023-10-12T16:45:24.257Z,16.16
2023-10-12T16:47:51.473Z,16.22
2023-10-12T16:50:18.993Z,16.06
2023-10-12T16:52:49.436Z,16.07
2023-10-12T16:55:19.967Z,16.06
2023-10-12T16:57:46.914Z,16.09
2023-10-12T17:00:16.136Z,16.12
2023-10-12T17:02:47.522Z,16.14
2023-10-12T17:05:16.905Z,16.19
2023-10-12T17:07:44.711Z,16.21
2023-10-12T17:10:24.204Z,16.29
2023-10-12T17:12:52.713Z,16.25
2023-10-12T17:15:20.000Z,16.12
2023-10-12T17:17:47.700Z,16.03
2023-10-12T17:20:17.556Z,16.16
2023-10-12T17:22:44.622Z,16.06
2023-10-12T17:25:12.980Z,16.00
2023-10-12T17:27:43.811Z,15.88
2023-10-12T17:30:11.379Z,15.84
2023-10-12T17:32:40.345Z,15.85
2023-10-12T17:35:12.601Z,15.77
2023-10-12T17:37:40.070Z,15.75
2023-10-12T17:40:08.853Z,15.73
2023-10-12T17:42:36.197Z,15.74
2023-10-12T17:45:09.874Z,15.72
2023-10-12T17:47:38.865Z,15.64
2023-10-12T17:50:13.226Z,15.57
2023-10-12T17:52:43.843Z,15.57
2023-10-12T17:55:12.151Z,15.46
2023-10-12T17:57:39.274Z,15.42
2023-10-12T18:00:10.623Z,15.45
2023-10-12T18:02:42.416Z,15.28
2023-10-12T18:05:14.185Z,15.41
2023-10-12T18:07:42.007Z,15.36
2023-10-12T18:10:09.943Z,15.25
2023-10-12T18:12:36.897Z,15.18
2023-10-12T18:15:04.962Z,14.91
2023-10-12T18:17:32.187Z,14.80
2023-10-12T18:20:02.922Z,14.65
2023-10-12T18:22:30.507Z,14.65
2023-10-12T18:24:58.555Z,14.55
2023-10-12T18:27:25.253Z,14.58
2023-10-12T18:29:53.169Z,14.45
2023-10-12T18:32:22.187Z,14.42
2023-10-12T18:34:52.390Z,14.34
2023-10-12T18:37:20.454Z,14.32
2023-10-12T18:39:48.924Z,14.31
2023-10-12T18:42:16.431Z,14.32
2023-10-12T18:44:44.248Z,14.21
2023-10-12T18:47:11.307Z,14.32
2023-10-12T18:49:43.993Z,14.16
2023-10-12T18:52:14.343Z,14.16
2023-10-12T18:54:43.005Z,14.06
2023-10-12T18:57:10.557Z,14.02
2023-10-12T18:59:37.871Z,14.04
2023-10-12T19:02:05.816Z,13.95
2023-10-12T19:04:32.701Z,13.87
2023-10-12T19:06:59.870Z,13.87
2023-10-12T19:09:27.784Z,13.82
2023-10-12T19:11:55.162Z,13.79
2023-10-12T19:14:22.464Z,13.70
2023-10-12T19:16:52.873Z,13.74
2023-10-12T19:19:22.419Z,13.65
2023-10-12T19:21:50.200Z,13.55
2023-10-12T19:24:19.094Z,13.54
2023-10-12T19:26:46.958Z,13.53
2023-10-12T19:29:13.660Z,13.67
2023-10-12T19:31:44.252Z,13.73
2023-10-12T19:34:11.706Z,13.76
2023-10-12T19:36:38.938Z,13.57
2023-10-12T19:39:08.350Z,13.52
2023-10-12T19:41:36.254Z,13.52
2023-10-12T19:44:09.377Z,13.61
2023-10-12T19:46:39.610Z,13.58
2023-10-12T19:49:09.010Z,13.56
2023-10-12T19:51:35.781Z,13.45
2023-10-12T19:54:03.928Z,13.40
2023-10-12T19:56:32.022Z,13.42
2023-10-12T19:58:59.268Z,13.41
2023-10-12T20:01:26.619Z,13.46
2023-10-12T20:03:56.085Z,13.28
2023-10-12T20:06:23.429Z,13.22
2023-10-12T20:08:50.667Z,13.22
2023-10-12T20:11:18.127Z,13.34
2023-10-12T20:13:48.379Z,13.24
2023-10-12T20:16:20.608Z,13.23
2023-10-12T20:18:48.195Z,13.20
2023-10-12T20:21:20.232Z,13.37
2023-10-12T20:23:48.348Z,13.23
2023-10-12T20:26:15.372Z,13.30
2023-10-12T20:28:42.338Z,13.44
2023-10-12T20:31:10.713Z,13.33
2023-10-12T20:33:39.656Z,13.36
2023-10-12T20:36:08.133Z,13.51
2023-10-12T20:38:35.721Z,13.56
2023-10-12T20:41:04.744Z,13.63
2023-10-12T20:43:34.846Z,13.67
2023-10-12T20:46:08.504Z,13.70
2023-10-12T20:48:38.182Z,13.74
2023-10-12T20:51:05.156Z,13.74
2023-10-12T20:53:36.181Z,13.73
2023-10-12T20:56:08.529Z,13.71
2023-10-12T20:58:43.174Z,13.73
2023-10-12T21:01:24.728Z,13.77
2023-10-12T21:03:55.076Z,13.66
2023-10-12T21:06:28.523Z,13.65
2023-10-12T21:09:13.005Z,13.60
2023-10-12T21:11:46.196Z,13.66
2023-10-12T21:14:21.397Z,13.67
2023-10-12T21:16:52.818Z,13.74
2023-10-12T21:19:21.048Z,13.72
2023-10-12T21:21:50.926Z,13.75
2023-10-12T21:24:18.665Z,13.71
2023-10-12T21:26:46.430Z,13.66
2023-10-12T21:29:18.629Z,13.68
2023-10-12T21:31:51.303Z,13.66
2023-10-12T21:34:27.567Z,13.67
2023-10-12T21:36:54.225Z,13.63
2023-10-12T21:39:41.993Z,13.59
2023-10-12T21:42:12.576Z,13.62
2023-10-12T21:44:41.887Z,13.58
2023-10-12T21:47:10.938Z,13.52
2023-10-12T21:49:38.661Z,13.69
2023-10-12T21:52:06.157Z,13.68
2023-10-12T21:54:37.060Z,13.70
2023-10-12T21:57:09.755Z,13.64
2023-10-12T21:59:36.914Z,13.65
2023-10-12T22:02:15.450Z,13.69
2023-10-12T22:05:01.797Z,13.60
2023-10-12T22:07:46.802Z,13.66
2023-10-12T22:10:14.208Z,13.64
2023-10-12T22:12:47.119Z,13.66
2023-10-12T22:15:24.673Z,13.62
2023-10-12T22:18:00.969Z,13.69
2023-10-12T22:20:29.136Z,13.67
2023-10-12T22:22:58.883Z,13.74
2023-10-12T22:25:28.029Z,13.73
2023-10-12T22:27:54.255Z,13.68
2023-10-12T22:30:20.965Z,13.76
2023-10-12T22:32:47.275Z,13.82
2023-10-12T22:35:17.491Z,13.75
2023-10-12T22:37:45.506Z,13.70
2023-10-12T22:40:14.822Z,13.67
2023-10-12T22:42:42.278Z,13.65
2023-10-12T22:45:20.945Z,13.67
2023-10-12T22:47:47.412Z,13.68
2023-10-12T22:50:16.083Z,13.78
2023-10-12T22:52:42.807Z,13.67
2023-10-12T22:55:11.366Z,13.81
2023-10-12T22:57:38.148Z,13.91
2023-10-12T23:00:17.734Z,13.95
2023-10-12T23:02:44.279Z,14.04
2023-10-12T23:05:15.389Z,14.07
2023-10-12T23:07:43.048Z,14.14
2023-10-12T23:10:18.992Z,14.17
2023-10-12T23:12:49.748Z,14.21
2023-10-12T23:15:16.875Z,14.21
2023-10-12T23:17:47.015Z,14.25
2023-10-12T23:20:36.316Z,14.29
2023-10-12T23:23:09.994Z,14.25
2023-10-12T23:25:56.967Z,14.22
2023-10-12T23:28:23.722Z,14.14
2023-10-12T23:30:54.814Z,14.12
2023-10-12T23:33:23.370Z,13.90
2023-10-12T23:35:52.600Z,13.87
2023-10-12T23:38:38.455Z,14.00
2023-10-12T23:41:15.697Z,14.00
2023-10-12T23:43:55.203Z,13.91
2023-10-12T23:46:23.845Z,13.88
2023-10-12T23:48:58.067Z,14.04
2023-10-12T23:51:28.610Z,14.05
2023-10-12T23:54:26.346Z,14.12
2023-10-12T23:57:03.020Z,14.19
2023-10-12T23:59:30.687Z,14.19
